createdAt,value
2022-11-06T00:01:16.059Z,28.90
2022-11-06T00:03:44.984Z,25.90
2022-11-06T00:06:35.240Z,25.90
2022-11-06T00:09:06.373Z,26.50
2022-11-06T00:11:34.783Z,28.00
2022-11-06T00:14:03.513Z,23.90
2022-11-06T00:16:31.674Z,29.00
2022-11-06T00:19:01.673Z,26.60
2022-11-06T00:21:31.077Z,29.90
2022-11-06T00:24:01.136Z,23.30
2022-11-06T00:26:30.757Z,23.40
2022-11-06T00:28:59.976Z,22.10
2022-11-06T00:31:31.161Z,24.10
2022-11-06T00:34:01.292Z,23.60
2022-11-06T00:36:30.803Z,23.00
2022-11-06T00:39:00.193Z,22.20
2022-11-06T00:41:29.047Z,24.80
2022-11-06T00:44:01.918Z,21.80
2022-11-06T00:46:30.740Z,20.10
2022-11-06T00:48:59.332Z,22.30
2022-11-06T00:51:32.425Z,21.30
2022-11-06T00:54:03.876Z,20.40
2022-11-06T00:56:33.965Z,21.50
2022-11-06T00:59:04.525Z,24.10
2022-11-06T01:01:40.795Z,21.20
2022-11-06T01:04:14.982Z,21.40
2022-11-06T01:06:45.742Z,21.80
2022-11-06T01:09:16.667Z,22.30
2022-11-06T01:14:39.122Z,16.80
2022-11-06T01:17:07.532Z,20.20
2022-11-06T01:19:35.702Z,17.80
2022-11-06T01:22:03.920Z,18.30
2022-11-06T01:24:32.172Z,19.10
2022-11-06T01:29:48.755Z,17.50
2022-11-06T01:32:17.550Z,17.70
2022-11-06T01:34:47.156Z,18.90
2022-11-06T01:37:15.347Z,17.00
2022-11-06T01:39:44.047Z,21.90
2022-11-06T01:42:19.745Z,18.40
2022-11-06T01:45:16.519Z,18.80
2022-11-06T01:47:45.201Z,19.90
2022-11-06T01:50:15.731Z,19.20
2022-11-06T01:52:47.208Z,17.10
2022-11-06T01:55:21.176Z,15.00
2022-11-06T01:57:50.008Z,17.20
2022-11-06T02:00:20.272Z,20.20
2022-11-06T02:02:50.283Z,18.50
2022-11-06T02:05:18.929Z,16.40
2022-11-06T02:07:47.554Z,15.10
2022-11-06T02:10:15.856Z,16.70
2022-11-06T02:13:17.755Z,17.40
2022-11-06T02:15:56.990Z,17.30
2022-11-06T02:18:25.494Z,19.70
2022-11-06T02:20:57.178Z,15.10
2022-11-06T02:23:45.871Z,18.10
2022-11-06T02:26:39.676Z,17.10
2022-11-06T02:29:11.853Z,14.80
2022-11-06T02:31:42.380Z,18.30
2022-11-06T02:34:15.265Z,13.30
2022-11-06T02:36:54.164Z,17.70
2022-11-06T02:39:26.368Z,16.90
2022-11-06T02:41:57.635Z,19.90
2022-11-06T02:44:30.594Z,15.40
2022-11-06T02:47:05.123Z,18.80
2022-11-06T02:49:40.416Z,16.40
2022-11-06T02:52:14.092Z,16.70
2022-11-06T02:54:49.545Z,15.40
2022-11-06T02:57:20.456Z,14.80
2022-11-06T03:00:04.054Z,14.70
2022-11-06T03:02:38.044Z,17.00
2022-11-06T03:05:10.535Z,16.00
2022-11-06T03:07:55.948Z,17.40
2022-11-06T03:10:29.812Z,15.20
2022-11-06T03:13:21.740Z,22.60
2022-11-06T03:15:55.721Z,15.90
2022-11-06T03:18:23.890Z,17.00
2022-11-06T03:21:04.148Z,13.90
2022-11-06T03:23:35.912Z,16.20
2022-11-06T03:26:15.997Z,15.30
2022-11-06T03:29:10.896Z,17.80
2022-11-06T03:31:50.821Z,16.50
2022-11-06T03:34:27.812Z,16.10
2022-11-06T03:37:19.288Z,17.40
2022-11-06T03:39:54.015Z,17.00
2022-11-06T03:42:26.963Z,17.80
2022-11-06T03:45:01.007Z,14.70
2022-11-06T03:47:36.721Z,16.20
2022-11-06T03:50:16.665Z,17.80
2022-11-06T03:52:49.839Z,17.40
2022-11-06T03:55:34.309Z,18.50
2022-11-06T03:58:07.795Z,16.80
2022-11-06T04:03:17.144Z,15.50
2022-11-06T04:05:52.591Z,16.90
2022-11-06T04:08:44.048Z,13.10
2022-11-06T04:11:36.903Z,15.40
2022-11-06T04:14:07.334Z,13.00
2022-11-06T04:16:39.852Z,15.60
2022-11-06T04:19:19.823Z,17.20
2022-11-06T04:22:17.430Z,16.10
2022-11-06T04:25:10.140Z,13.80
2022-11-06T04:27:59.398Z,15.60
2022-11-06T04:30:32.615Z,19.40
2022-11-06T04:33:14.437Z,17.50
2022-11-06T04:35:55.402Z,19.60
2022-11-06T04:38:34.858Z,16.20
2022-11-06T04:41:13.825Z,16.90
2022-11-06T04:43:54.512Z,16.30
2022-11-06T04:46:30.296Z,19.50
2022-11-06T04:49:00.364Z,15.60
2022-11-06T04:51:33.613Z,14.00
2022-11-06T04:54:02.620Z,12.90
2022-11-06T04:56:35.322Z,14.80
2022-11-06T04:59:05.635Z,13.40
2022-11-06T05:01:34.265Z,14.40
2022-11-06T05:04:02.525Z,16.50
2022-11-06T05:06:30.740Z,16.00
2022-11-06T05:09:01.299Z,14.20
2022-11-06T05:11:29.533Z,12.80
2022-11-06T05:14:01.007Z,17.40
2022-11-06T05:16:29.092Z,17.00
2022-11-06T05:18:57.164Z,15.00
2022-11-06T05:21:43.880Z,14.30
2022-11-06T05:24:12.207Z,15.10
2022-11-06T05:26:40.426Z,15.20
2022-11-06T05:29:08.552Z,12.20
2022-11-06T05:31:36.652Z,14.60
2022-11-06T05:34:04.896Z,15.90
2022-11-06T05:36:33.496Z,17.20
2022-11-06T05:39:01.780Z,13.50
2022-11-06T05:41:29.865Z,14.70
2022-11-06T05:43:58.185Z,18.70
2022-11-06T05:49:14.356Z,15.00
2022-11-06T05:51:42.692Z,12.90
2022-11-06T05:54:10.966Z,12.60
2022-11-06T05:56:39.183Z,13.00
2022-11-06T05:59:07.374Z,16.90
2022-11-06T06:01:36.116Z,16.10
2022-11-06T06:04:04.627Z,14.00
2022-11-06T06:06:34.032Z,11.50
2022-11-06T06:09:02.199Z,14.90
2022-11-06T06:11:30.369Z,15.90
2022-11-06T06:13:58.465Z,16.70
2022-11-06T06:16:26.956Z,16.10
2022-11-06T06:18:55.052Z,14.90
2022-11-06T06:21:23.339Z,17.50
2022-11-06T06:23:51.892Z,16.60
2022-11-06T06:26:19.997Z,17.90
2022-11-06T06:28:49.651Z,16.70
2022-11-06T06:31:17.764Z,21.60
2022-11-06T06:33:45.905Z,24.30
2022-11-06T06:36:14.251Z,20.20
2022-11-06T06:38:43.082Z,20.10
2022-11-06T06:41:11.439Z,20.20
2022-11-06T06:43:39.782Z,18.50
2022-11-06T06:46:08.218Z,27.10
2022-11-06T06:48:37.225Z,20.40
2022-11-06T06:51:06.363Z,21.80
2022-11-06T06:53:35.133Z,22.10
2022-11-06T06:56:03.241Z,22.10
2022-11-06T06:58:32.556Z,23.10
2022-11-06T07:01:06.450Z,22.80
2022-11-06T07:03:34.951Z,16.90
2022-11-06T07:06:03.579Z,19.60
2022-11-06T07:08:32.064Z,19.30
2022-11-06T07:11:08.014Z,18.10
2022-11-06T07:13:36.634Z,20.30
2022-11-06T07:16:07.115Z,16.40
2022-11-06T07:18:36.362Z,21.50
2022-11-06T07:21:07.052Z,21.40
2022-11-06T07:23:36.227Z,20.30
2022-11-06T07:26:05.429Z,21.00
2022-11-06T07:28:34.122Z,24.80
2022-11-06T07:31:05.358Z,19.00
2022-11-06T07:33:34.104Z,16.20
2022-11-06T07:36:07.851Z,19.10
2022-11-06T07:41:08.731Z,18.30
2022-11-06T07:43:37.630Z,17.70
2022-11-06T07:46:08.150Z,14.90
2022-11-06T07:48:36.888Z,21.90
2022-11-06T07:51:07.466Z,18.60
2022-11-06T07:53:36.679Z,19.50
2022-11-06T07:56:05.490Z,19.20
2022-11-06T07:58:33.713Z,17.10
2022-11-06T08:01:02.687Z,19.00
2022-11-06T08:03:31.326Z,17.20
2022-11-06T08:05:59.786Z,16.10
2022-11-06T08:08:28.434Z,19.00
2022-11-06T08:10:56.836Z,18.20
2022-11-06T08:13:26.730Z,17.00
2022-11-06T08:15:54.958Z,16.20
2022-11-06T08:18:23.581Z,15.10
2022-11-06T08:20:52.894Z,16.50
2022-11-06T08:23:21.145Z,19.80
2022-11-06T08:25:49.361Z,19.60
2022-11-06T08:28:17.501Z,15.20
2022-11-06T08:30:45.665Z,17.90
2022-11-06T08:33:13.910Z,17.30
2022-11-06T08:35:42.604Z,18.80
2022-11-06T08:38:11.056Z,18.10
2022-11-06T08:40:40.390Z,15.10
2022-11-06T08:43:10.773Z,16.60
2022-11-06T08:45:40.861Z,18.80
2022-11-06T08:48:10.254Z,20.20
2022-11-06T08:50:40.173Z,17.10
2022-11-06T08:53:08.721Z,16.00
2022-11-06T08:55:39.510Z,16.30
2022-11-06T08:58:08.595Z,15.60
2022-11-06T09:00:39.731Z,17.30
2022-11-06T09:03:15.090Z,14.80
2022-11-06T09:05:44.453Z,13.70
2022-11-06T09:08:13.289Z,13.70
2022-11-06T09:10:42.848Z,14.70
2022-11-06T09:13:12.256Z,14.90
2022-11-06T09:15:41.126Z,14.90
2022-11-06T09:18:11.835Z,14.30
2022-11-06T09:20:40.377Z,12.90
2022-11-06T09:23:09.869Z,16.10
2022-11-06T09:25:38.383Z,14.50
2022-11-06T09:28:06.727Z,13.20
2022-11-06T09:30:35.045Z,14.20
2022-11-06T09:33:06.176Z,14.20
2022-11-06T09:35:37.670Z,17.40
2022-11-06T09:38:08.440Z,13.00
2022-11-06T09:40:41.215Z,13.90
2022-11-06T09:43:58.372Z,13.10
2022-11-06T09:46:29.822Z,15.00
2022-11-06T09:49:20.273Z,15.40
2022-11-06T09:52:03.496Z,13.90
2022-11-06T09:54:40.553Z,13.70
2022-11-06T09:57:19.740Z,14.40
2022-11-06T09:59:50.353Z,15.30
2022-11-06T10:02:34.260Z,15.80
2022-11-06T10:07:45.969Z,13.00
2022-11-06T10:10:17.925Z,14.80
2022-11-06T10:13:17.463Z,13.60
2022-11-06T10:15:56.496Z,15.90
2022-11-06T10:18:31.188Z,13.50
2022-11-06T10:21:26.046Z,13.10
2022-11-06T10:23:59.592Z,15.60
2022-11-06T10:29:41.104Z,11.10
2022-11-06T10:32:12.620Z,11.30
2022-11-06T10:34:47.267Z,12.10
2022-11-06T10:37:22.125Z,11.30
2022-11-06T10:39:51.113Z,13.20
2022-11-06T10:42:24.911Z,13.00
2022-11-06T10:45:17.543Z,8.30
2022-11-06T10:47:52.640Z,9.20
2022-11-06T10:50:25.179Z,9.90
2022-11-06T10:53:01.664Z,9.50
2022-11-06T10:55:51.958Z,9.90
2022-11-06T10:58:23.848Z,9.50
2022-11-06T11:01:01.319Z,10.60
2022-11-06T11:03:33.022Z,11.40
2022-11-06T11:06:03.102Z,10.60
2022-11-06T11:08:31.362Z,8.20
2022-11-06T11:11:05.373Z,10.20
2022-11-06T11:13:34.137Z,10.80
2022-11-06T11:16:04.038Z,13.60
2022-11-06T11:18:32.471Z,13.30
2022-11-06T11:21:24.487Z,11.50
2022-11-06T11:24:11.601Z,10.50
2022-11-06T11:26:45.164Z,10.40
2022-11-06T11:31:59.108Z,10.80
2022-11-06T11:34:30.157Z,12.80
2022-11-06T11:37:04.598Z,8.90
2022-11-06T11:39:35.870Z,8.90
2022-11-06T11:42:25.723Z,10.30
2022-11-06T11:45:26.607Z,8.70
2022-11-06T11:48:13.366Z,14.90
2022-11-06T11:50:42.035Z,10.80
2022-11-06T11:53:20.450Z,11.90
2022-11-06T11:55:50.836Z,11.10
2022-11-06T11:58:26.759Z,10.10
2022-11-06T12:01:05.283Z,9.90
2022-11-06T12:03:40.359Z,10.60
2022-11-06T12:06:12.378Z,11.30
2022-11-06T12:08:47.759Z,10.40
2022-11-06T12:11:24.076Z,10.30
2022-11-06T12:14:17.010Z,10.00
2022-11-06T12:16:49.110Z,10.30
2022-11-06T12:19:20.643Z,13.70
2022-11-06T12:21:57.891Z,10.50
2022-11-06T12:24:39.890Z,15.00
2022-11-06T12:27:18.815Z,11.50
2022-11-06T12:29:55.030Z,9.10
2022-11-06T12:32:37.220Z,10.60
2022-11-06T12:35:29.935Z,10.10
2022-11-06T12:38:11.049Z,11.80
2022-11-06T12:40:47.731Z,11.00
2022-11-06T12:43:37.158Z,12.60
2022-11-06T12:46:20.534Z,11.80
2022-11-06T12:48:54.952Z,14.00
2022-11-06T12:51:54.528Z,10.20
2022-11-06T12:55:00.667Z,11.50
2022-11-06T12:57:47.287Z,10.90
2022-11-06T13:00:21.641Z,8.90
2022-11-06T13:03:01.799Z,10.20
2022-11-06T13:05:53.489Z,9.60
2022-11-06T13:08:47.923Z,9.40
2022-11-06T13:11:36.996Z,10.00
2022-11-06T13:14:11.375Z,10.20
2022-11-06T13:16:39.595Z,9.50
2022-11-06T13:19:26.327Z,10.30
2022-11-06T13:22:07.811Z,11.50
2022-11-06T13:25:04.072Z,8.30
2022-11-06T13:27:42.218Z,10.20
2022-11-06T13:30:38.679Z,8.00
2022-11-06T13:33:21.015Z,9.90
2022-11-06T13:35:49.958Z,11.60
2022-11-06T13:38:41.078Z,9.80
2022-11-06T13:41:22.268Z,9.60
2022-11-06T13:44:03.953Z,13.50
2022-11-06T13:47:15.133Z,14.00
2022-11-06T13:50:04.375Z,10.10
2022-11-06T13:53:18.583Z,11.60
2022-11-06T13:56:20.724Z,12.40
2022-11-06T13:59:15.923Z,10.10
2022-11-06T14:01:52.962Z,9.80
2022-11-06T14:04:58.396Z,9.20
2022-11-06T14:07:30.402Z,10.10
2022-11-06T14:09:59.695Z,10.40
2022-11-06T14:12:28.687Z,11.70
2022-11-06T14:15:22.723Z,15.50
2022-11-06T14:17:59.475Z,12.60
2022-11-06T14:20:36.692Z,15.20
2022-11-06T14:23:29.557Z,12.70
2022-11-06T14:26:00.594Z,10.50
2022-11-06T14:28:37.526Z,12.30
2022-11-06T14:31:12.015Z,12.60
2022-11-06T14:33:42.168Z,12.80
2022-11-06T14:36:28.197Z,12.20
2022-11-06T14:38:56.790Z,12.60
2022-11-06T14:41:38.584Z,12.20
2022-11-06T14:44:12.553Z,10.30
2022-11-06T14:46:50.348Z,11.30
2022-11-06T14:49:32.961Z,9.50
2022-11-06T14:52:11.443Z,11.50
2022-11-06T14:54:49.384Z,18.10
2022-11-06T14:57:33.492Z,18.50
2022-11-06T15:00:02.704Z,19.30
2022-11-06T15:02:33.759Z,22.10
2022-11-06T15:05:06.107Z,20.40
2022-11-06T15:10:47.560Z,18.30
2022-11-06T15:13:18.823Z,17.60
2022-11-06T15:15:55.580Z,19.10
2022-11-06T15:18:25.353Z,16.90
2022-11-06T15:20:57.077Z,18.50
2022-11-06T15:23:38.388Z,21.80
2022-11-06T15:26:17.062Z,25.80
2022-11-06T15:28:49.242Z,23.70
2022-11-06T15:31:20.193Z,19.00
2022-11-06T15:33:58.058Z,21.20
2022-11-06T15:36:28.225Z,17.90
2022-11-06T15:38:56.850Z,21.10
2022-11-06T15:41:27.297Z,15.50
2022-11-06T15:43:56.283Z,17.60
2022-11-06T15:46:28.956Z,18.50
2022-11-06T15:49:17.309Z,23.30
2022-11-06T15:52:03.447Z,17.00
2022-11-06T15:54:36.116Z,25.50
2022-11-06T15:57:18.836Z,19.30
2022-11-06T15:59:47.559Z,21.10
2022-11-06T16:02:22.749Z,22.20
2022-11-06T16:04:53.191Z,20.10
2022-11-06T16:07:22.103Z,21.30
2022-11-06T16:09:51.910Z,22.50
2022-11-06T16:12:20.603Z,16.90
2022-11-06T16:14:48.952Z,18.00
2022-11-06T16:17:26.541Z,19.80
2022-11-06T16:19:58.971Z,22.30
2022-11-06T16:22:32.622Z,20.10
2022-11-06T16:27:36.719Z,19.80
2022-11-06T16:30:06.754Z,16.50
2022-11-06T16:32:42.233Z,18.50
2022-11-06T16:35:30.571Z,19.90
2022-11-06T16:38:39.676Z,21.90
2022-11-06T16:41:08.257Z,18.40
2022-11-06T16:43:36.637Z,21.60
2022-11-06T16:46:08.154Z,21.30
2022-11-06T16:48:40.428Z,23.50
2022-11-06T16:51:10.884Z,24.40
2022-11-06T16:53:56.089Z,22.10
2022-11-06T16:56:27.781Z,24.30
2022-11-06T16:59:04.330Z,22.80
2022-11-06T17:01:44.949Z,17.80
2022-11-06T17:04:22.660Z,22.30
2022-11-06T17:06:52.685Z,21.30
2022-11-06T17:09:29.732Z,20.80
2022-11-06T17:12:00.484Z,19.20
2022-11-06T17:14:30.755Z,21.80
2022-11-06T17:17:00.956Z,21.50
2022-11-06T17:19:30.855Z,18.00
2022-11-06T17:21:59.243Z,24.80
2022-11-06T17:24:43.145Z,22.20
2022-11-06T17:29:40.196Z,22.10
2022-11-06T17:32:08.777Z,22.20
2022-11-06T17:34:37.163Z,22.40
2022-11-06T17:37:06.023Z,20.90
2022-11-06T17:39:34.433Z,20.60
2022-11-06T17:42:02.735Z,21.80
2022-11-06T17:44:31.095Z,23.70
2022-11-06T17:46:59.433Z,25.00
2022-11-06T17:49:27.825Z,21.80
2022-11-06T17:52:02.427Z,24.60
2022-11-06T17:54:33.039Z,24.70
2022-11-06T17:57:04.240Z,26.00
2022-11-06T17:59:33.611Z,20.90
2022-11-06T18:02:02.176Z,22.00
2022-11-06T18:04:31.548Z,21.10
2022-11-06T18:07:00.410Z,19.80
2022-11-06T18:09:29.180Z,20.90
2022-11-06T18:11:57.597Z,19.10
2022-11-06T18:14:27.343Z,18.60
2022-11-06T18:16:55.816Z,18.30
2022-11-06T18:19:25.853Z,17.70
2022-11-06T18:21:55.575Z,21.70
2022-11-06T18:24:24.592Z,19.60
2022-11-06T18:26:53.681Z,22.20
2022-11-06T18:29:22.095Z,20.80
2022-11-06T18:31:50.373Z,22.60
2022-11-06T18:34:21.328Z,20.20
2022-11-06T18:36:50.939Z,21.40
2022-11-06T18:39:19.876Z,22.60
2022-11-06T18:41:48.614Z,23.60
2022-11-06T18:44:18.433Z,22.30
2022-11-06T18:46:47.371Z,20.60
2022-11-06T18:49:16.288Z,20.90
2022-11-06T18:51:45.097Z,18.60
2022-11-06T18:54:13.672Z,19.20
2022-11-06T18:56:42.500Z,19.00
2022-11-06T18:59:14.914Z,16.20
2022-11-06T19:01:43.279Z,19.00
2022-11-06T19:04:12.128Z,20.30
2022-11-06T19:06:40.464Z,22.80
2022-11-06T19:09:10.720Z,18.00
2022-11-06T19:11:39.630Z,20.20
2022-11-06T19:14:08.024Z,21.00
2022-11-06T19:16:36.728Z,18.30
2022-11-06T19:19:06.646Z,18.60
2022-11-06T19:21:35.428Z,22.30
2022-11-06T19:24:05.873Z,20.00
2022-11-06T19:26:36.316Z,21.00
2022-11-06T19:29:08.704Z,19.10
2022-11-06T19:31:37.949Z,22.40
2022-11-06T19:34:08.416Z,19.90
2022-11-06T19:36:36.693Z,21.40
2022-11-06T19:39:06.913Z,24.00
2022-11-06T19:41:35.124Z,21.50
2022-11-06T19:44:03.481Z,25.30
2022-11-06T19:46:36.101Z,19.00
2022-11-06T19:49:06.683Z,22.60
2022-11-06T19:51:37.688Z,22.40
2022-11-06T19:54:06.223Z,27.20
2022-11-06T19:56:34.549Z,19.40
2022-11-06T19:59:04.021Z,20.10
2022-11-06T20:01:34.597Z,22.50
2022-11-06T20:04:03.065Z,19.70
2022-11-06T20:06:31.292Z,23.10
2022-11-06T20:08:59.610Z,29.30
2022-11-06T20:11:27.756Z,20.90
2022-11-06T20:13:56.207Z,23.40
2022-11-06T20:16:24.499Z,26.30
2022-11-06T20:18:54.607Z,26.20
2022-11-06T20:21:26.567Z,24.10
2022-11-06T20:23:58.360Z,26.40
2022-11-06T20:26:26.584Z,24.90
2022-11-06T20:28:54.814Z,26.80
2022-11-06T20:31:23.522Z,27.80
2022-11-06T20:33:52.684Z,23.30
2022-11-06T20:36:24.394Z,25.30
2022-11-06T20:38:54.455Z,23.60
2022-11-06T20:41:24.791Z,22.30
2022-11-06T20:43:53.671Z,22.60
2022-11-06T20:46:22.928Z,20.70
2022-11-06T20:48:51.945Z,23.90
2022-11-06T20:51:23.493Z,21.50
2022-11-06T20:53:52.492Z,22.30
2022-11-06T20:56:22.517Z,20.10
2022-11-06T20:58:52.805Z,21.30
2022-11-06T21:01:24.072Z,23.10
2022-11-06T21:03:52.729Z,21.70
2022-11-06T21:06:24.345Z,24.40
2022-11-06T21:08:53.711Z,23.40
2022-11-06T21:11:24.647Z,21.40
2022-11-06T21:13:54.227Z,19.60
2022-11-06T21:16:28.720Z,23.80
2022-11-06T21:18:58.730Z,24.90
2022-11-06T21:21:28.910Z,21.40
2022-11-06T21:23:57.335Z,25.40
2022-11-06T21:26:28.848Z,21.00
2022-11-06T21:28:57.499Z,18.70
2022-11-06T21:31:28.652Z,20.20
2022-11-06T21:33:58.977Z,19.90
2022-11-06T21:36:32.897Z,16.80
2022-11-06T21:39:04.871Z,19.10
2022-11-06T21:41:34.577Z,17.80
2022-11-06T21:44:04.209Z,16.50
2022-11-06T21:46:32.710Z,22.00
2022-11-06T21:49:01.275Z,18.60
2022-11-06T21:51:32.039Z,19.80
2022-11-06T21:54:19.354Z,18.60
2022-11-06T21:56:50.244Z,19.70
2022-11-06T21:59:20.591Z,19.10
2022-11-06T22:01:49.319Z,17.80
2022-11-06T22:04:18.210Z,21.70
2022-11-06T22:06:46.405Z,21.30
2022-11-06T22:09:15.112Z,17.90
2022-11-06T22:11:44.718Z,15.80
2022-11-06T22:14:15.540Z,15.60
2022-11-06T22:16:46.029Z,17.50
2022-11-06T22:19:16.039Z,21.30
2022-11-06T22:21:44.431Z,20.00
2022-11-06T22:24:14.149Z,21.90
2022-11-06T22:26:42.617Z,19.50
2022-11-06T22:29:13.637Z,18.90
2022-11-06T22:31:44.235Z,19.10
2022-11-06T22:34:13.474Z,18.50
2022-11-06T22:36:42.063Z,17.20
2022-11-06T22:39:11.656Z,23.60
2022-11-06T22:41:41.427Z,22.10
2022-11-06T22:44:10.222Z,20.00
2022-11-06T22:46:39.250Z,23.40
2022-11-06T22:49:07.655Z,19.90
2022-11-06T22:51:36.311Z,21.30
2022-11-06T22:54:05.318Z,17.40
2022-11-06T22:56:33.922Z,18.10
2022-11-06T22:59:05.518Z,21.70
2022-11-06T23:01:41.791Z,21.30
2022-11-06T23:04:16.640Z,18.20
2022-11-06T23:06:45.724Z,21.00
2022-11-06T23:09:14.812Z,18.30
2022-11-06T23:11:46.434Z,18.80
2022-11-06T23:14:14.767Z,19.00
2022-11-06T23:16:57.856Z,17.30
2022-11-06T23:19:28.883Z,16.70
2022-11-06T23:22:17.547Z,22.40
2022-11-06T23:24:45.932Z,18.00
2022-11-06T23:27:14.146Z,19.50
2022-11-06T23:29:42.531Z,19.90
2022-11-06T23:32:11.331Z,16.80
2022-11-06T23:34:40.340Z,17.50
2022-11-06T23:37:09.503Z,16.90
2022-11-06T23:39:37.980Z,16.70
2022-11-06T23:42:06.553Z,20.60
2022-11-06T23:44:53.309Z,16.10
2022-11-06T23:47:21.646Z,18.80
2022-11-06T23:49:49.947Z,15.40
2022-11-06T23:52:18.837Z,20.20
2022-11-06T23:54:47.568Z,23.40
2022-11-06T23:57:15.888Z,18.70
2022-11-06T23:59:44.101Z,17.00
